KBAF/BAF METAR and TAF weather

Enter ICAO airport designator
Station Type Date Time Source
KBAF METAR 2019/08/24 08:53 UTC NOAA

KBAF 240853Z AUTO 36004KT 10SM CLR 12/09 A3012 RMK AO2 SLP200 T01170094 53007


Station Type Date Time Source
KBAF Decoded METAR 2019/08/24 08:53 UTC NOAA

Station name not available
Aug 24, 2019 - 04:53 AM EDT / 2019.08.24 0853 UTC
Wind: from the N (360 degrees) at 5 MPH (4 KT):0
Visibility: 10 mile(s):0
Sky conditions: clear
Temperature: 53.1 F (11.7 C)
Dew Point: 48.9 F (9.4 C)
Relative Humidity: 85%
Pressure (altimeter): 30.12 in. Hg (1019 hPa)
Pressure tendency: 0.02 inches (0.7 hPa) higher than three hours ago
ob: KBAF 240853Z AUTO 36004KT 10SM CLR 12/09 A3012 RMK AO2 SLP200 T01170094 53007
cycle: 9

Station Type Date Time Source
KBAF TAF 2019/08/24 06:30 UTC NOAA

TAF KBAF 240526Z 2406/2506 VRB03KT P6SM SKC
FM241400 01005KT P6SM SCT045
FM250000 03004KT P6SM SCT045
FM250300 00000KT P6SM SCT050

Example: see airport list